sensor_id;sensor_type;location;lat;lon;timestamp;P1;durP1;ratioP1;P2;durP2;ratioP2
9461;SDS011;4769;42.660;23.262;2023-05-29T00:00:53;6.03;;;5.43;;
9461;SDS011;4769;42.660;23.262;2023-05-29T00:03:19;8.13;;;6.10;;
9461;SDS011;4769;42.660;23.262;2023-05-29T00:05:45;6.63;;;5.82;;
9461;SDS011;4769;42.660;23.262;2023-05-29T00:08:10;10.80;;;5.28;;
9461;SDS011;4769;42.660;23.262;2023-05-29T00:10:36;6.63;;;5.47;;
9461;SDS011;4769;42.660;23.262;2023-05-29T00:13:04;5.63;;;4.80;;
9461;SDS011;4769;42.660;23.262;2023-05-29T00:15:30;6.78;;;5.32;;
9461;SDS011;4769;42.660;23.262;2023-05-29T00:17:56;6.60;;;5.63;;
9461;SDS011;4769;42.660;23.262;2023-05-29T00:20:21;5.95;;;5.18;;
9461;SDS011;4769;42.660;23.262;2023-05-29T00:22:47;6.80;;;5.40;;
9461;SDS011;4769;42.660;23.262;2023-05-29T00:25:14;6.25;;;5.65;;
9461;SDS011;4769;42.660;23.262;2023-05-29T00:27:40;8.75;;;6.40;;
9461;SDS011;4769;42.660;23.262;2023-05-29T00:30:09;8.45;;;5.57;;
9461;SDS011;4769;42.660;23.262;2023-05-29T00:32:36;5.88;;;5.25;;
9461;SDS011;4769;42.660;23.262;2023-05-29T00:35:01;6.28;;;5.20;;
9461;SDS011;4769;42.660;23.262;2023-05-29T00:37:27;7.03;;;5.32;;
9461;SDS011;4769;42.660;23.262;2023-05-29T00:39:53;5.90;;;4.95;;
9461;SDS011;4769;42.660;23.262;2023-05-29T00:42:18;7.28;;;5.10;;
9461;SDS011;4769;42.660;23.262;2023-05-29T00:44:44;6.75;;;5.53;;
9461;SDS011;4769;42.660;23.262;2023-05-29T00:47:13;7.88;;;5.47;;
9461;SDS011;4769;42.660;23.262;2023-05-29T00:49:39;6.32;;;5.28;;
9461;SDS011;4769;42.660;23.262;2023-05-29T00:52:05;7.07;;;5.10;;
9461;SDS011;4769;42.660;23.262;2023-05-29T00:54:34;7.05;;;5.50;;
9461;SDS011;4769;42.660;23.262;2023-05-29T00:57:00;5.38;;;4.88;;
9461;SDS011;4769;42.660;23.262;2023-05-29T00:59:27;5.65;;;5.15;;
9461;SDS011;4769;42.660;23.262;2023-05-29T01:01:55;6.20;;;5.47;;
9461;SDS011;4769;42.660;23.262;2023-05-29T01:04:24;6.88;;;5.30;;
9461;SDS011;4769;42.660;23.262;2023-05-29T01:06:51;5.70;;;5.10;;
9461;SDS011;4769;42.660;23.262;2023-05-29T01:09:17;6.15;;;5.50;;
9461;SDS011;4769;42.660;23.262;2023-05-29T01:11:45;5.63;;;5.07;;
9461;SDS011;4769;42.660;23.262;2023-05-29T01:14:23;5.70;;;5.07;;
9461;SDS011;4769;42.660;23.262;2023-05-29T01:16:55;5.80;;;5.25;;
9461;SDS011;4769;42.660;23.262;2023-05-29T01:19:34;6.30;;;4.95;;
9461;SDS011;4769;42.660;23.262;2023-05-29T01:22:17;6.30;;;5.38;;
9461;SDS011;4769;42.660;23.262;2023-05-29T01:24:52;5.55;;;5.05;;
9461;SDS011;4769;42.660;23.262;2023-05-29T01:27:31;5.93;;;5.30;;
9461;SDS011;4769;42.660;23.262;2023-05-29T01:29:58;5.53;;;5.03;;
9461;SDS011;4769;42.660;23.262;2023-05-29T01:32:26;6.43;;;5.68;;
9461;SDS011;4769;42.660;23.262;2023-05-29T01:34:52;5.88;;;5.38;;
9461;SDS011;4769;42.660;23.262;2023-05-29T01:37:18;6.68;;;5.32;;
9461;SDS011;4769;42.660;23.262;2023-05-29T01:39:44;7.53;;;5.65;;
9461;SDS011;4769;42.660;23.262;2023-05-29T01:42:10;6.53;;;5.93;;
9461;SDS011;4769;42.660;23.262;2023-05-29T01:44:39;6.30;;;5.70;;
9461;SDS011;4769;42.660;23.262;2023-05-29T01:47:05;6.60;;;6.00;;
9461;SDS011;4769;42.660;23.262;2023-05-29T01:49:31;5.65;;;5.15;;
9461;SDS011;4769;42.660;23.262;2023-05-29T01:51:57;7.65;;;6.13;;
9461;SDS011;4769;42.660;23.262;2023-05-29T01:54:23;6.18;;;5.53;;
9461;SDS011;4769;42.660;23.262;2023-05-29T01:56:49;7.28;;;6.07;;
9461;SDS011;4769;42.660;23.262;2023-05-29T01:59:16;6.55;;;5.70;;
9461;SDS011;4769;42.660;23.262;2023-05-29T02:01:45;7.45;;;5.97;;
9461;SDS011;4769;42.660;23.262;2023-05-29T02:04:12;7.03;;;5.53;;
9461;SDS011;4769;42.660;23.262;2023-05-29T02:06:38;8.48;;;6.07;;
9461;SDS011;4769;42.660;23.262;2023-05-29T02:09:03;7.13;;;6.40;;
9461;SDS011;4769;42.660;23.262;2023-05-29T02:11:29;6.60;;;5.85;;
9461;SDS011;4769;42.660;23.262;2023-05-29T02:13:55;6.65;;;6.05;;
9461;SDS011;4769;42.660;23.262;2023-05-29T02:16:21;8.88;;;6.40;;
9461;SDS011;4769;42.660;23.262;2023-05-29T02:18:49;6.72;;;6.13;;
9461;SDS011;4769;42.660;23.262;2023-05-29T02:21:15;7.53;;;5.78;;
9461;SDS011;4769;42.660;23.262;2023-05-29T02:23:40;6.63;;;5.90;;
9461;SDS011;4769;42.660;23.262;2023-05-29T02:26:06;6.63;;;5.93;;
9461;SDS011;4769;42.660;23.262;2023-05-29T02:28:32;7.22;;;6.40;;
9461;SDS011;4769;42.660;23.262;2023-05-29T02:30:57;7.38;;;6.57;;
9461;SDS011;4769;42.660;23.262;2023-05-29T02:33:23;6.85;;;6.15;;
9461;SDS011;4769;42.660;23.262;2023-05-29T02:35:51;7.13;;;6.43;;
9461;SDS011;4769;42.660;23.262;2023-05-29T02:38:17;8.25;;;7.45;;
9461;SDS011;4769;42.660;23.262;2023-05-29T02:40:43;7.85;;;7.10;;
9461;SDS011;4769;42.660;23.262;2023-05-29T02:43:09;8.20;;;7.38;;
9461;SDS011;4769;42.660;23.262;2023-05-29T02:45:37;9.13;;;6.80;;
9461;SDS011;4769;42.660;23.262;2023-05-29T02:48:03;8.63;;;7.32;;
9461;SDS011;4769;42.660;23.262;2023-05-29T02:50:29;8.02;;;7.07;;
9461;SDS011;4769;42.660;23.262;2023-05-29T02:52:57;10.63;;;7.35;;
9461;SDS011;4769;42.660;23.262;2023-05-29T02:55:23;8.00;;;7.18;;
9461;SDS011;4769;42.660;23.262;2023-05-29T02:57:48;8.45;;;7.55;;
9461;SDS011;4769;42.660;23.262;2023-05-29T03:00:14;8.68;;;7.88;;
9461;SDS011;4769;42.660;23.262;2023-05-29T03:02:40;8.35;;;7.55;;
9461;SDS011;4769;42.660;23.262;2023-05-29T03:05:06;8.93;;;8.02;;
9461;SDS011;4769;42.660;23.262;2023-05-29T03:07:32;8.50;;;7.15;;
9461;SDS011;4769;42.660;23.262;2023-05-29T03:10:01;8.20;;;7.40;;
9461;SDS011;4769;42.660;23.262;2023-05-29T03:12:26;8.05;;;7.35;;
9461;SDS011;4769;42.660;23.262;2023-05-29T03:14:52;8.05;;;7.25;;
9461;SDS011;4769;42.660;23.262;2023-05-29T03:17:18;9.00;;;6.93;;
9461;SDS011;4769;42.660;23.262;2023-05-29T03:19:44;8.57;;;7.38;;
9461;SDS011;4769;42.660;23.262;2023-05-29T03:22:10;6.85;;;6.15;;
9461;SDS011;4769;42.660;23.262;2023-05-29T03:24:35;8.50;;;6.35;;
9461;SDS011;4769;42.660;23.262;2023-05-29T03:27:04;6.63;;;6.00;;
9461;SDS011;4769;42.660;23.262;2023-05-29T03:29:31;6.88;;;6.15;;
9461;SDS011;4769;42.660;23.262;2023-05-29T03:31:56;8.75;;;5.75;;
9461;SDS011;4769;42.660;23.262;2023-05-29T03:34:22;7.40;;;5.68;;
9461;SDS011;4769;42.660;23.262;2023-05-29T03:36:48;8.82;;;5.97;;
9461;SDS011;4769;42.660;23.262;2023-05-29T03:39:13;6.32;;;5.72;;
9461;SDS011;4769;42.660;23.262;2023-05-29T03:41:39;7.43;;;5.30;;
9461;SDS011;4769;42.660;23.262;2023-05-29T03:44:07;6.90;;;5.07;;
9461;SDS011;4769;42.660;23.262;2023-05-29T03:46:33;6.82;;;5.55;;
9461;SDS011;4769;42.660;23.262;2023-05-29T03:48:59;7.43;;;6.03;;
9461;SDS011;4769;42.660;23.262;2023-05-29T03:51:24;7.57;;;6.28;;
9461;SDS011;4769;42.660;23.262;2023-05-29T03:53:50;9.25;;;7.20;;
9461;SDS011;4769;42.660;23.262;2023-05-29T03:56:16;13.25;;;8.13;;
9461;SDS011;4769;42.660;23.262;2023-05-29T03:58:42;19.77;;;7.90;;
9461;SDS011;4769;42.660;23.262;2023-05-29T04:01:10;12.88;;;7.97;;
9461;SDS011;4769;42.660;23.262;2023-05-29T04:03:36;9.57;;;6.55;;
9461;SDS011;4769;42.660;23.262;2023-05-29T04:06:01;13.93;;;6.80;;
9461;SDS011;4769;42.660;23.262;2023-05-29T04:08:27;10.55;;;6.60;;
9461;SDS011;4769;42.660;23.262;2023-05-29T04:10:53;10.13;;;6.68;;
9461;SDS011;4769;42.660;23.262;2023-05-29T04:13:19;11.60;;;6.28;;
9461;SDS011;4769;42.660;23.262;2023-05-29T04:15:44;11.00;;;5.88;;
9461;SDS011;4769;42.660;23.262;2023-05-29T04:18:13;11.32;;;6.22;;
9461;SDS011;4769;42.660;23.262;2023-05-29T04:20:38;9.98;;;5.50;;
9461;SDS011;4769;42.660;23.262;2023-05-29T04:23:04;8.35;;;5.60;;
9461;SDS011;4769;42.660;23.262;2023-05-29T04:25:30;11.50;;;6.13;;
9461;SDS011;4769;42.660;23.262;2023-05-29T04:27:56;8.00;;;5.40;;
9461;SDS011;4769;42.660;23.262;2023-05-29T04:30:22;10.40;;;7.30;;
9461;SDS011;4769;42.660;23.262;2023-05-29T04:32:47;9.45;;;7.43;;
9461;SDS011;4769;42.660;23.262;2023-05-29T04:35:16;13.30;;;7.53;;
9461;SDS011;4769;42.660;23.262;2023-05-29T04:37:41;12.07;;;7.55;;
9461;SDS011;4769;42.660;23.262;2023-05-29T04:40:08;14.82;;;8.07;;
9461;SDS011;4769;42.660;23.262;2023-05-29T04:42:34;17.55;;;7.88;;
9461;SDS011;4769;42.660;23.262;2023-05-29T04:45:00;11.35;;;7.03;;
9461;SDS011;4769;42.660;23.262;2023-05-29T04:47:25;16.67;;;7.20;;
9461;SDS011;4769;42.660;23.262;2023-05-29T04:49:51;13.30;;;7.65;;
9461;SDS011;4769;42.660;23.262;2023-05-29T04:52:20;14.18;;;8.43;;
9461;SDS011;4769;42.660;23.262;2023-05-29T04:54:48;17.25;;;8.80;;
9461;SDS011;4769;42.660;23.262;2023-05-29T04:57:14;14.13;;;9.15;;
9461;SDS011;4769;42.660;23.262;2023-05-29T04:59:40;13.60;;;9.52;;
9461;SDS011;4769;42.660;23.262;2023-05-29T05:02:05;15.90;;;8.77;;
9461;SDS011;4769;42.660;23.262;2023-05-29T05:04:31;19.92;;;9.10;;
9461;SDS011;4769;42.660;23.262;2023-05-29T05:06:57;15.45;;;9.48;;
9461;SDS011;4769;42.660;23.262;2023-05-29T05:09:25;18.92;;;10.43;;
9461;SDS011;4769;42.660;23.262;2023-05-29T05:11:51;16.08;;;9.75;;
9461;SDS011;4769;42.660;23.262;2023-05-29T05:14:17;15.00;;;10.27;;
9461;SDS011;4769;42.660;23.262;2023-05-29T05:16:42;13.95;;;9.07;;
9461;SDS011;4769;42.660;23.262;2023-05-29T05:19:08;15.38;;;10.13;;
9461;SDS011;4769;42.660;23.262;2023-05-29T05:21:34;17.67;;;10.05;;
9461;SDS011;4769;42.660;23.262;2023-05-29T05:23:59;18.98;;;10.13;;
9461;SDS011;4769;42.660;23.262;2023-05-29T05:26:28;17.45;;;9.52;;
9461;SDS011;4769;42.660;23.262;2023-05-29T05:28:54;18.52;;;10.10;;
9461;SDS011;4769;42.660;23.262;2023-05-29T05:31:19;16.77;;;9.52;;
9461;SDS011;4769;42.660;23.262;2023-05-29T05:33:45;20.20;;;10.48;;
9461;SDS011;4769;42.660;23.262;2023-05-29T05:36:11;17.05;;;11.32;;
9461;SDS011;4769;42.660;23.262;2023-05-29T05:38:37;21.17;;;10.45;;
9461;SDS011;4769;42.660;23.262;2023-05-29T05:41:02;21.75;;;10.02;;
9461;SDS011;4769;42.660;23.262;2023-05-29T05:43:31;16.98;;;11.07;;
9461;SDS011;4769;42.660;23.262;2023-05-29T05:45:57;14.63;;;10.73;;
9461;SDS011;4769;42.660;23.262;2023-05-29T05:48:22;21.30;;;13.70;;
9461;SDS011;4769;42.660;23.262;2023-05-29T05:50:48;24.42;;;17.13;;
9461;SDS011;4769;42.660;23.262;2023-05-29T05:53:14;17.08;;;10.77;;
9461;SDS011;4769;42.660;23.262;2023-05-29T05:55:39;15.48;;;9.77;;
9461;SDS011;4769;42.660;23.262;2023-05-29T05:58:05;15.48;;;9.75;;
9461;SDS011;4769;42.660;23.262;2023-05-29T06:00:33;13.70;;;9.02;;
9461;SDS011;4769;42.660;23.262;2023-05-29T06:02:59;12.02;;;7.72;;
9461;SDS011;4769;42.660;23.262;2023-05-29T06:05:25;16.08;;;8.48;;
9461;SDS011;4769;42.660;23.262;2023-05-29T06:07:50;8.38;;;6.97;;
9461;SDS011;4769;42.660;23.262;2023-05-29T06:10:16;10.57;;;7.07;;
9461;SDS011;4769;42.660;23.262;2023-05-29T06:12:42;10.10;;;6.78;;
9461;SDS011;4769;42.660;23.262;2023-05-29T06:15:08;12.07;;;7.47;;
9461;SDS011;4769;42.660;23.262;2023-05-29T06:17:37;9.00;;;6.63;;
9461;SDS011;4769;42.660;23.262;2023-05-29T06:20:03;11.13;;;6.20;;
9461;SDS011;4769;42.660;23.262;2023-05-29T06:22:29;11.82;;;7.00;;
9461;SDS011;4769;42.660;23.262;2023-05-29T06:24:55;8.93;;;6.18;;
9461;SDS011;4769;42.660;23.262;2023-05-29T06:27:21;7.97;;;6.03;;
9461;SDS011;4769;42.660;23.262;2023-05-29T06:29:47;9.05;;;5.80;;
9461;SDS011;4769;42.660;23.262;2023-05-29T06:32:12;9.73;;;5.30;;
9461;SDS011;4769;42.660;23.262;2023-05-29T06:34:41;7.57;;;5.13;;
9461;SDS011;4769;42.660;23.262;2023-05-29T06:37:06;9.27;;;5.32;;
9461;SDS011;4769;42.660;23.262;2023-05-29T06:39:32;10.40;;;6.00;;
9461;SDS011;4769;42.660;23.262;2023-05-29T06:41:58;9.32;;;6.25;;
9461;SDS011;4769;42.660;23.262;2023-05-29T06:44:24;7.97;;;5.72;;
9461;SDS011;4769;42.660;23.262;2023-05-29T06:46:49;8.98;;;6.60;;
9461;SDS011;4769;42.660;23.262;2023-05-29T06:49:15;7.90;;;5.78;;
9461;SDS011;4769;42.660;23.262;2023-05-29T06:51:43;8.23;;;5.55;;
9461;SDS011;4769;42.660;23.262;2023-05-29T06:54:09;9.25;;;5.75;;
9461;SDS011;4769;42.660;23.262;2023-05-29T06:56:35;8.55;;;5.10;;
9461;SDS011;4769;42.660;23.262;2023-05-29T06:59:01;5.00;;;4.32;;
9461;SDS011;4769;42.660;23.262;2023-05-29T07:01:27;8.77;;;4.50;;
9461;SDS011;4769;42.660;23.262;2023-05-29T07:03:53;7.85;;;4.10;;
9461;SDS011;4769;42.660;23.262;2023-05-29T07:06:19;5.28;;;3.55;;
9461;SDS011;4769;42.660;23.262;2023-05-29T07:08:47;5.72;;;3.45;;
9461;SDS011;4769;42.660;23.262;2023-05-29T07:11:13;5.78;;;3.40;;
9461;SDS011;4769;42.660;23.262;2023-05-29T07:13:40;7.07;;;3.35;;
9461;SDS011;4769;42.660;23.262;2023-05-29T07:16:06;4.38;;;3.25;;
9461;SDS011;4769;42.660;23.262;2023-05-29T07:18:32;6.30;;;3.72;;
9461;SDS011;4769;42.660;23.262;2023-05-29T07:20:59;4.20;;;3.80;;
9461;SDS011;4769;42.660;23.262;2023-05-29T07:23:25;4.20;;;3.20;;
9461;SDS011;4769;42.660;23.262;2023-05-29T07:25:54;3.50;;;3.20;;
9461;SDS011;4769;42.660;23.262;2023-05-29T07:28:20;8.07;;;3.47;;
9461;SDS011;4769;42.660;23.262;2023-05-29T07:30:46;6.35;;;3.63;;
9461;SDS011;4769;42.660;23.262;2023-05-29T07:33:11;6.10;;;3.55;;
9461;SDS011;4769;42.660;23.262;2023-05-29T07:35:37;7.72;;;3.60;;
9461;SDS011;4769;42.660;23.262;2023-05-29T07:38:03;4.25;;;3.80;;
9461;SDS011;4769;42.660;23.262;2023-05-29T07:40:29;3.60;;;3.30;;
9461;SDS011;4769;42.660;23.262;2023-05-29T07:42:57;4.85;;;3.22;;
9461;SDS011;4769;42.660;23.262;2023-05-29T07:45:23;3.97;;;2.58;;
9461;SDS011;4769;42.660;23.262;2023-05-29T07:47:48;7.43;;;3.00;;
9461;SDS011;4769;42.660;23.262;2023-05-29T07:50:14;7.53;;;3.17;;
9461;SDS011;4769;42.660;23.262;2023-05-29T07:52:41;7.32;;;3.55;;
9461;SDS011;4769;42.660;23.262;2023-05-29T07:55:07;3.67;;;3.28;;
9461;SDS011;4769;42.660;23.262;2023-05-29T07:57:33;4.72;;;3.15;;
9461;SDS011;4769;42.660;23.262;2023-05-29T08:00:02;5.53;;;2.85;;
9461;SDS011;4769;42.660;23.262;2023-05-29T08:02:28;4.47;;;3.65;;
9461;SDS011;4769;42.660;23.262;2023-05-29T08:04:53;5.15;;;3.13;;
9461;SDS011;4769;42.660;23.262;2023-05-29T08:07:19;3.92;;;3.60;;
9461;SDS011;4769;42.660;23.262;2023-05-29T08:09:45;6.15;;;3.78;;
9461;SDS011;4769;42.660;23.262;2023-05-29T08:12:10;5.70;;;3.70;;
9461;SDS011;4769;42.660;23.262;2023-05-29T08:14:36;5.53;;;3.42;;
9461;SDS011;4769;42.660;23.262;2023-05-29T08:17:05;4.13;;;3.70;;
9461;SDS011;4769;42.660;23.262;2023-05-29T08:19:31;4.30;;;3.58;;
9461;SDS011;4769;42.660;23.262;2023-05-29T08:21:57;6.00;;;3.97;;
9461;SDS011;4769;42.660;23.262;2023-05-29T08:24:22;4.85;;;3.78;;
9461;SDS011;4769;42.660;23.262;2023-05-29T08:26:48;3.50;;;3.20;;
9461;SDS011;4769;42.660;23.262;2023-05-29T08:29:14;4.10;;;3.35;;
9461;SDS011;4769;42.660;23.262;2023-05-29T08:31:39;4.22;;;3.45;;
9461;SDS011;4769;42.660;23.262;2023-05-29T08:34:08;5.03;;;3.60;;
9461;SDS011;4769;42.660;23.262;2023-05-29T08:36:33;6.10;;;3.92;;
9461;SDS011;4769;42.660;23.262;2023-05-29T08:38:59;6.22;;;3.55;;
9461;SDS011;4769;42.660;23.262;2023-05-29T08:41:26;5.65;;;3.42;;
9461;SDS011;4769;42.660;23.262;2023-05-29T08:43:59;7.38;;;3.70;;
9461;SDS011;4769;42.660;23.262;2023-05-29T08:46:28;6.38;;;4.60;;
9461;SDS011;4769;42.660;23.262;2023-05-29T08:48:54;5.93;;;4.18;;
9461;SDS011;4769;42.660;23.262;2023-05-29T08:51:26;4.63;;;3.35;;
9461;SDS011;4769;42.660;23.262;2023-05-29T08:53:59;5.43;;;3.78;;
9461;SDS011;4769;42.660;23.262;2023-05-29T08:56:26;4.13;;;3.70;;
9461;SDS011;4769;42.660;23.262;2023-05-29T08:58:52;4.90;;;3.38;;
9461;SDS011;4769;42.660;23.262;2023-05-29T09:01:20;4.25;;;3.83;;
9461;SDS011;4769;42.660;23.262;2023-05-29T09:03:47;5.07;;;3.35;;
9461;SDS011;4769;42.660;23.262;2023-05-29T09:06:12;7.75;;;3.45;;
9461;SDS011;4769;42.660;23.262;2023-05-29T09:08:41;5.05;;;3.25;;
9461;SDS011;4769;42.660;23.262;2023-05-29T09:11:06;6.13;;;3.60;;
9461;SDS011;4769;42.660;23.262;2023-05-29T09:13:32;6.00;;;3.60;;
9461;SDS011;4769;42.660;23.262;2023-05-29T09:15:58;5.15;;;4.15;;
9461;SDS011;4769;42.660;23.262;2023-05-29T09:18:27;3.70;;;3.25;;
9461;SDS011;4769;42.660;23.262;2023-05-29T09:20:54;6.70;;;3.70;;
9461;SDS011;4769;42.660;23.262;2023-05-29T09:23:19;5.22;;;3.70;;
9461;SDS011;4769;42.660;23.262;2023-05-29T09:25:50;5.40;;;3.90;;
9461;SDS011;4769;42.660;23.262;2023-05-29T09:28:17;7.20;;;4.40;;
9461;SDS011;4769;42.660;23.262;2023-05-29T09:30:44;6.68;;;3.67;;
9461;SDS011;4769;42.660;23.262;2023-05-29T09:33:11;3.13;;;2.90;;
9461;SDS011;4769;42.660;23.262;2023-05-29T09:35:38;4.82;;;3.28;;
9461;SDS011;4769;42.660;23.262;2023-05-29T09:38:05;6.00;;;3.53;;
9461;SDS011;4769;42.660;23.262;2023-05-29T09:40:31;6.05;;;3.67;;
9461;SDS011;4769;42.660;23.262;2023-05-29T09:43:09;6.50;;;4.10;;
9461;SDS011;4769;42.660;23.262;2023-05-29T09:45:36;5.07;;;3.83;;
9461;SDS011;4769;42.660;23.262;2023-05-29T09:48:06;8.32;;;3.65;;
9461;SDS011;4769;42.660;23.262;2023-05-29T09:50:33;5.13;;;4.60;;
9461;SDS011;4769;42.660;23.262;2023-05-29T09:52:59;8.65;;;4.72;;
9461;SDS011;4769;42.660;23.262;2023-05-29T09:55:25;5.13;;;4.13;;
9461;SDS011;4769;42.660;23.262;2023-05-29T09:57:53;5.60;;;4.00;;
9461;SDS011;4769;42.660;23.262;2023-05-29T10:00:22;7.03;;;3.78;;
9461;SDS011;4769;42.660;23.262;2023-05-29T10:02:48;4.50;;;4.10;;
9461;SDS011;4769;42.660;23.262;2023-05-29T10:05:14;6.25;;;3.15;;
9461;SDS011;4769;42.660;23.262;2023-05-29T10:07:39;5.95;;;3.53;;
9461;SDS011;4769;42.660;23.262;2023-05-29T10:10:09;5.78;;;3.60;;
9461;SDS011;4769;42.660;23.262;2023-05-29T10:12:37;4.10;;;3.70;;
9461;SDS011;4769;42.660;23.262;2023-05-29T10:15:05;3.70;;;3.40;;
9461;SDS011;4769;42.660;23.262;2023-05-29T10:17:39;5.60;;;3.22;;
9461;SDS011;4769;42.660;23.262;2023-05-29T10:20:12;6.57;;;3.63;;
9461;SDS011;4769;42.660;23.262;2023-05-29T10:22:44;3.83;;;3.50;;
9461;SDS011;4769;42.660;23.262;2023-05-29T10:25:11;4.32;;;3.67;;
9461;SDS011;4769;42.660;23.262;2023-05-29T10:27:38;4.35;;;3.45;;
9461;SDS011;4769;42.660;23.262;2023-05-29T10:30:06;5.20;;;4.10;;
9461;SDS011;4769;42.660;23.262;2023-05-29T10:32:43;6.35;;;4.20;;
9461;SDS011;4769;42.660;23.262;2023-05-29T10:35:20;5.22;;;3.67;;
9461;SDS011;4769;42.660;23.262;2023-05-29T10:37:52;4.75;;;3.78;;
9461;SDS011;4769;42.660;23.262;2023-05-29T10:40:23;4.00;;;3.65;;
9461;SDS011;4769;42.660;23.262;2023-05-29T10:42:50;4.82;;;3.65;;
9461;SDS011;4769;42.660;23.262;2023-05-29T10:51:29;5.10;;;3.88;;
9461;SDS011;4769;42.660;23.262;2023-05-29T10:53:55;4.88;;;3.75;;
9461;SDS011;4769;42.660;23.262;2023-05-29T10:56:21;5.35;;;3.75;;
9461;SDS011;4769;42.660;23.262;2023-05-29T10:58:49;4.53;;;3.92;;
9461;SDS011;4769;42.660;23.262;2023-05-29T11:01:17;5.07;;;3.47;;
9461;SDS011;4769;42.660;23.262;2023-05-29T11:03:47;4.07;;;3.40;;
9461;SDS011;4769;42.660;23.262;2023-05-29T11:06:17;5.75;;;3.40;;
9461;SDS011;4769;42.660;23.262;2023-05-29T11:08:47;8.32;;;3.85;;
9461;SDS011;4769;42.660;23.262;2023-05-29T11:11:28;4.32;;;3.80;;
9461;SDS011;4769;42.660;23.262;2023-05-29T11:13:55;7.00;;;4.13;;
9461;SDS011;4769;42.660;23.262;2023-05-29T11:16:35;10.57;;;5.13;;
9461;SDS011;4769;42.660;23.262;2023-05-29T11:19:03;7.05;;;4.10;;
9461;SDS011;4769;42.660;23.262;2023-05-29T11:21:31;11.55;;;5.22;;
9461;SDS011;4769;42.660;23.262;2023-05-29T11:24:02;6.25;;;4.57;;
9461;SDS011;4769;42.660;23.262;2023-05-29T11:26:29;3.92;;;3.60;;
9461;SDS011;4769;42.660;23.262;2023-05-29T11:28:57;5.57;;;4.03;;
9461;SDS011;4769;42.660;23.262;2023-05-29T11:31:23;5.00;;;3.75;;
9461;SDS011;4769;42.660;23.262;2023-05-29T11:33:50;7.80;;;5.75;;
9461;SDS011;4769;42.660;23.262;2023-05-29T11:36:17;4.47;;;3.80;;
9461;SDS011;4769;42.660;23.262;2023-05-29T11:38:42;4.32;;;3.50;;
9461;SDS011;4769;42.660;23.262;2023-05-29T11:41:11;5.10;;;3.80;;
9461;SDS011;4769;42.660;23.262;2023-05-29T11:43:37;5.65;;;3.92;;
9461;SDS011;4769;42.660;23.262;2023-05-29T11:46:06;8.20;;;3.55;;
9461;SDS011;4769;42.660;23.262;2023-05-29T11:48:44;5.38;;;4.00;;
9461;SDS011;4769;42.660;23.262;2023-05-29T11:51:10;4.95;;;3.97;;
9461;SDS011;4769;42.660;23.262;2023-05-29T11:53:36;7.10;;;3.70;;
9461;SDS011;4769;42.660;23.262;2023-05-29T11:56:06;5.18;;;3.58;;
9461;SDS011;4769;42.660;23.262;2023-05-29T11:58:35;4.57;;;3.72;;
9461;SDS011;4769;42.660;23.262;2023-05-29T12:01:01;3.78;;;3.42;;
9461;SDS011;4769;42.660;23.262;2023-05-29T12:03:27;3.40;;;3.13;;
9461;SDS011;4769;42.660;23.262;2023-05-29T12:05:52;3.97;;;3.55;;
9461;SDS011;4769;42.660;23.262;2023-05-29T12:08:20;5.10;;;3.35;;
9461;SDS011;4769;42.660;23.262;2023-05-29T12:10:47;4.50;;;3.70;;
9461;SDS011;4769;42.660;23.262;2023-05-29T12:13:13;7.28;;;3.78;;
9461;SDS011;4769;42.660;23.262;2023-05-29T12:15:41;5.30;;;3.63;;
9461;SDS011;4769;42.660;23.262;2023-05-29T12:18:07;7.53;;;4.28;;
9461;SDS011;4769;42.660;23.262;2023-05-29T12:20:33;6.30;;;4.15;;
9461;SDS011;4769;42.660;23.262;2023-05-29T12:23:00;9.25;;;3.75;;
9461;SDS011;4769;42.660;23.262;2023-05-29T12:25:26;6.95;;;3.80;;
9461;SDS011;4769;42.660;23.262;2023-05-29T12:27:52;5.03;;;3.80;;
9461;SDS011;4769;42.660;23.262;2023-05-29T12:30:21;4.25;;;3.80;;
9461;SDS011;4769;42.660;23.262;2023-05-29T12:32:50;7.13;;;3.97;;
9461;SDS011;4769;42.660;23.262;2023-05-29T12:35:17;6.80;;;4.57;;
9461;SDS011;4769;42.660;23.262;2023-05-29T12:37:44;7.47;;;4.40;;
9461;SDS011;4769;42.660;23.262;2023-05-29T12:40:13;7.70;;;4.50;;
9461;SDS011;4769;42.660;23.262;2023-05-29T12:42:40;5.03;;;4.45;;
9461;SDS011;4769;42.660;23.262;2023-05-29T12:45:06;6.80;;;4.28;;
9461;SDS011;4769;42.660;23.262;2023-05-29T12:47:33;7.15;;;4.18;;
9461;SDS011;4769;42.660;23.262;2023-05-29T12:50:01;7.80;;;4.68;;
9461;SDS011;4769;42.660;23.262;2023-05-29T12:52:30;11.77;;;4.90;;
9461;SDS011;4769;42.660;23.262;2023-05-29T12:54:55;11.30;;;5.70;;
9461;SDS011;4769;42.660;23.262;2023-05-29T12:57:21;8.57;;;5.18;;
9461;SDS011;4769;42.660;23.262;2023-05-29T12:59:49;10.52;;;7.30;;
9461;SDS011;4769;42.660;23.262;2023-05-29T13:02:14;10.73;;;6.75;;
9461;SDS011;4769;42.660;23.262;2023-05-29T13:04:40;9.30;;;6.18;;
9461;SDS011;4769;42.660;23.262;2023-05-29T13:07:08;10.10;;;6.25;;
9461;SDS011;4769;42.660;23.262;2023-05-29T13:09:34;9.88;;;6.30;;
9461;SDS011;4769;42.660;23.262;2023-05-29T13:12:00;7.35;;;5.72;;
9461;SDS011;4769;42.660;23.262;2023-05-29T13:14:26;8.48;;;6.05;;
9461;SDS011;4769;42.660;23.262;2023-05-29T13:16:51;7.50;;;5.07;;
9461;SDS011;4769;42.660;23.262;2023-05-29T13:19:17;6.22;;;4.78;;
9461;SDS011;4769;42.660;23.262;2023-05-29T13:21:43;6.32;;;4.70;;
9461;SDS011;4769;42.660;23.262;2023-05-29T13:24:11;7.00;;;4.82;;
9461;SDS011;4769;42.660;23.262;2023-05-29T13:26:37;4.70;;;4.30;;
9461;SDS011;4769;42.660;23.262;2023-05-29T13:29:02;5.93;;;4.35;;
9461;SDS011;4769;42.660;23.262;2023-05-29T13:31:28;5.60;;;4.20;;
9461;SDS011;4769;42.660;23.262;2023-05-29T13:33:54;4.03;;;3.67;;
9461;SDS011;4769;42.660;23.262;2023-05-29T13:36:19;5.28;;;4.72;;
9461;SDS011;4769;42.660;23.262;2023-05-29T13:38:45;5.78;;;3.70;;
9461;SDS011;4769;42.660;23.262;2023-05-29T13:41:13;4.65;;;3.85;;
9461;SDS011;4769;42.660;23.262;2023-05-29T13:43:39;4.82;;;3.90;;
9461;SDS011;4769;42.660;23.262;2023-05-29T13:46:05;5.70;;;4.15;;
9461;SDS011;4769;42.660;23.262;2023-05-29T13:48:31;6.97;;;5.07;;
9461;SDS011;4769;42.660;23.262;2023-05-29T13:50:56;4.63;;;4.20;;
9461;SDS011;4769;42.660;23.262;2023-05-29T13:53:22;6.13;;;4.20;;
9461;SDS011;4769;42.660;23.262;2023-05-29T13:55:47;4.78;;;4.20;;
9461;SDS011;4769;42.660;23.262;2023-05-29T13:58:16;4.43;;;4.03;;
9461;SDS011;4769;42.660;23.262;2023-05-29T14:00:41;5.05;;;4.38;;
9461;SDS011;4769;42.660;23.262;2023-05-29T14:03:07;5.93;;;4.05;;
9461;SDS011;4769;42.660;23.262;2023-05-29T14:05:33;8.88;;;4.07;;
9461;SDS011;4769;42.660;23.262;2023-05-29T14:07:58;5.30;;;3.92;;
9461;SDS011;4769;42.660;23.262;2023-05-29T14:10:24;4.45;;;4.05;;
9461;SDS011;4769;42.660;23.262;2023-05-29T14:12:50;4.55;;;4.05;;
9461;SDS011;4769;42.660;23.262;2023-05-29T14:15:18;4.90;;;4.25;;
9461;SDS011;4769;42.660;23.262;2023-05-29T14:17:44;4.15;;;3.75;;
9461;SDS011;4769;42.660;23.262;2023-05-29T14:20:10;5.80;;;4.10;;
9461;SDS011;4769;42.660;23.262;2023-05-29T14:22:35;5.55;;;3.50;;
9461;SDS011;4769;42.660;23.262;2023-05-29T14:25:01;10.00;;;2.90;;
9461;SDS011;4769;42.660;23.262;2023-05-29T14:27:27;2.33;;;2.10;;
9461;SDS011;4769;42.660;23.262;2023-05-29T14:29:53;3.50;;;2.40;;
9461;SDS011;4769;42.660;23.262;2023-05-29T14:32:21;3.05;;;2.42;;
9461;SDS011;4769;42.660;23.262;2023-05-29T14:34:47;3.28;;;2.00;;
9461;SDS011;4769;42.660;23.262;2023-05-29T14:37:12;3.53;;;2.20;;
9461;SDS011;4769;42.660;23.262;2023-05-29T14:39:38;5.03;;;2.40;;
9461;SDS011;4769;42.660;23.262;2023-05-29T14:42:04;4.45;;;2.40;;
9461;SDS011;4769;42.660;23.262;2023-05-29T14:44:31;5.70;;;2.55;;
9461;SDS011;4769;42.660;23.262;2023-05-29T14:46:56;4.22;;;2.60;;
9461;SDS011;4769;42.660;23.262;2023-05-29T14:49:25;7.72;;;2.85;;
9461;SDS011;4769;42.660;23.262;2023-05-29T14:51:51;6.97;;;2.78;;
9461;SDS011;4769;42.660;23.262;2023-05-29T14:54:16;5.60;;;2.40;;
9461;SDS011;4769;42.660;23.262;2023-05-29T14:56:42;4.05;;;2.20;;
9461;SDS011;4769;42.660;23.262;2023-05-29T14:59:08;8.27;;;3.53;;
9461;SDS011;4769;42.660;23.262;2023-05-29T15:01:33;17.20;;;3.65;;